createdAt,value
2022-11-08T00:00:07.231Z,26.60
2022-11-08T00:02:34.186Z,25.48
2022-11-08T00:05:19.616Z,25.45
2022-11-08T00:08:05.086Z,21.35
2022-11-08T00:10:50.590Z,26.12
2022-11-08T00:13:36.308Z,24.52
2022-11-08T00:16:03.409Z,27.17
2022-11-08T00:18:30.222Z,26.17
2022-11-08T00:21:01.315Z,28.30
2022-11-08T00:23:28.157Z,28.00
2022-11-08T00:25:55.493Z,26.45
2022-11-08T00:28:22.350Z,27.75
2022-11-08T00:30:49.180Z,25.58
2022-11-08T00:33:16.043Z,28.20
2022-11-08T00:35:42.891Z,26.98
2022-11-08T00:38:09.744Z,27.60
2022-11-08T00:40:36.627Z,26.83
2022-11-08T00:43:03.753Z,26.90
2022-11-08T00:45:30.660Z,28.87
2022-11-08T00:47:57.508Z,24.87
2022-11-08T00:50:24.367Z,25.70
2022-11-08T00:52:51.203Z,29.27
2022-11-08T00:57:59.220Z,25.88
2022-11-08T01:00:27.365Z,28.38
2022-11-08T01:03:14.295Z,28.48
2022-11-08T01:05:41.646Z,25.88
2022-11-08T01:08:09.346Z,26.17
2022-11-08T01:10:36.591Z,28.70
2022-11-08T01:13:03.947Z,26.83
2022-11-08T01:15:35.930Z,25.60
2022-11-08T01:18:03.964Z,25.27
2022-11-08T01:20:30.827Z,26.33
2022-11-08T01:22:57.704Z,24.37
2022-11-08T01:25:24.601Z,25.00
2022-11-08T01:27:51.511Z,24.27
2022-11-08T01:30:18.397Z,24.48
2022-11-08T01:32:45.276Z,23.62
2022-11-08T01:35:12.112Z,24.17
2022-11-08T01:40:06.233Z,26.23
2022-11-08T01:42:33.508Z,25.48
2022-11-08T01:45:12.019Z,23.02
2022-11-08T01:47:38.866Z,24.55
2022-11-08T01:52:51.938Z,22.73
2022-11-08T01:55:36.002Z,23.23
2022-11-08T01:58:08.872Z,21.58
2022-11-08T02:00:37.879Z,23.17
2022-11-08T02:03:05.988Z,23.40
2022-11-08T02:05:33.981Z,23.75
2022-11-08T02:08:03.723Z,24.48
2022-11-08T02:10:35.275Z,26.20
2022-11-08T02:13:05.029Z,22.20
2022-11-08T02:15:32.874Z,26.42
2022-11-08T02:17:59.893Z,25.37
2022-11-08T02:20:27.395Z,26.52
2022-11-08T02:23:00.195Z,24.25
2022-11-08T02:25:27.213Z,25.17
2022-11-08T02:27:54.113Z,21.62
2022-11-08T02:30:21.071Z,22.87
2022-11-08T02:32:47.919Z,23.08
2022-11-08T02:37:42.664Z,25.55
2022-11-08T02:40:10.355Z,25.02
2022-11-08T02:42:39.986Z,28.52
2022-11-08T02:45:08.011Z,23.02
2022-11-08T02:47:35.001Z,28.35
2022-11-08T02:50:02.030Z,24.95
2022-11-08T02:52:28.884Z,23.67
2022-11-08T02:54:55.745Z,24.40
2022-11-08T02:57:22.600Z,31.62
2022-11-08T02:59:49.465Z,24.25
2022-11-08T03:02:16.539Z,21.62
2022-11-08T03:04:43.462Z,22.05
2022-11-08T03:09:36.960Z,20.92
2022-11-08T03:12:03.987Z,25.85
2022-11-08T03:14:30.817Z,25.77
2022-11-08T03:19:24.361Z,21.35
2022-11-08T03:24:17.892Z,24.52
2022-11-08T03:26:44.786Z,23.80
2022-11-08T03:29:11.614Z,23.33
2022-11-08T03:34:05.152Z,23.25
2022-11-08T03:38:58.671Z,21.62
2022-11-08T03:43:52.259Z,22.23
2022-11-08T03:46:19.146Z,23.30
2022-11-08T03:48:45.994Z,23.73
2022-11-08T03:53:39.928Z,24.97
2022-11-08T03:58:33.761Z,22.10
2022-11-08T04:01:05.013Z,22.48
2022-11-08T04:03:32.122Z,24.15
2022-11-08T04:06:02.435Z,23.52
2022-11-08T04:08:30.184Z,20.30
2022-11-08T04:10:58.018Z,23.55
2022-11-08T04:13:43.701Z,19.50
2022-11-08T04:16:15.189Z,23.48
2022-11-08T04:19:02.904Z,19.98
2022-11-08T04:21:29.763Z,22.65
2022-11-08T04:23:56.572Z,22.55
2022-11-08T04:28:50.328Z,20.62
2022-11-08T04:31:19.666Z,20.40
2022-11-08T04:33:46.655Z,25.80
2022-11-08T04:36:15.740Z,22.05
2022-11-08T04:38:42.679Z,24.05
2022-11-08T04:41:14.447Z,24.58
2022-11-08T04:43:41.976Z,21.60
2022-11-08T04:46:13.927Z,22.25
2022-11-08T04:48:41.444Z,22.77
2022-11-08T04:51:12.049Z,22.90
2022-11-08T04:53:39.129Z,23.15
2022-11-08T04:56:08.658Z,21.52
2022-11-08T04:58:40.811Z,20.80
2022-11-08T05:01:09.377Z,21.52
2022-11-08T05:03:36.634Z,21.05
2022-11-08T05:06:11.995Z,22.62
2022-11-08T05:08:39.095Z,19.98
2022-11-08T05:11:11.265Z,23.98
2022-11-08T05:13:38.400Z,25.52
2022-11-08T05:16:07.835Z,23.10
2022-11-08T05:18:35.193Z,26.77
2022-11-08T05:21:21.209Z,24.52
2022-11-08T05:23:49.414Z,26.12
2022-11-08T05:26:17.805Z,28.33
2022-11-08T05:28:44.772Z,20.75
2022-11-08T05:31:11.824Z,22.52
2022-11-08T05:33:38.982Z,22.35
2022-11-08T05:36:07.975Z,23.90
2022-11-08T05:38:34.917Z,23.48
2022-11-08T05:41:12.516Z,21.12
2022-11-08T05:43:40.042Z,23.42
2022-11-08T05:46:07.441Z,22.17
2022-11-08T05:48:34.824Z,25.17
2022-11-08T05:51:01.721Z,23.70
2022-11-08T05:53:28.829Z,23.08
2022-11-08T05:55:59.762Z,22.10
2022-11-08T05:58:27.427Z,21.37
2022-11-08T06:01:04.718Z,20.23
2022-11-08T06:03:31.802Z,20.08
2022-11-08T06:06:06.078Z,22.65
2022-11-08T06:08:32.973Z,21.08
2022-11-08T06:11:10.672Z,20.25
2022-11-08T06:13:37.858Z,18.20
2022-11-08T06:16:07.442Z,22.80
2022-11-08T06:18:35.319Z,19.40
2022-11-08T06:21:03.051Z,19.85
2022-11-08T06:23:30.064Z,21.58
2022-11-08T06:25:57.100Z,18.77
2022-11-08T06:28:24.445Z,21.00
2022-11-08T06:30:51.689Z,22.33
2022-11-08T06:33:20.588Z,18.20
2022-11-08T06:35:47.868Z,18.17
2022-11-08T06:38:14.765Z,17.58
2022-11-08T06:40:41.687Z,18.95
2022-11-08T06:43:14.958Z,21.15
2022-11-08T06:45:45.040Z,17.10
2022-11-08T06:48:12.035Z,17.33
2022-11-08T06:50:38.860Z,17.37
2022-11-08T06:53:07.201Z,16.73
2022-11-08T06:55:35.639Z,15.45
2022-11-08T06:58:03.166Z,17.02
2022-11-08T07:00:30.560Z,16.05
2022-11-08T07:03:00.599Z,17.25
2022-11-08T07:05:28.852Z,16.42
2022-11-08T07:07:57.833Z,15.82
2022-11-08T07:10:26.730Z,15.77
2022-11-08T07:13:06.568Z,21.87
2022-11-08T07:15:34.683Z,17.33
2022-11-08T07:18:09.741Z,15.32
2022-11-08T07:20:38.188Z,15.57
2022-11-08T07:23:05.779Z,15.48
2022-11-08T07:25:33.229Z,14.65
2022-11-08T07:28:02.414Z,13.65
2022-11-08T07:30:29.858Z,16.27
2022-11-08T07:32:57.539Z,15.85
2022-11-08T07:39:06.836Z,18.35
2022-11-08T07:41:33.865Z,18.25
2022-11-08T07:44:00.741Z,16.77
2022-11-08T07:46:27.610Z,14.60
2022-11-08T07:48:54.477Z,13.95
2022-11-08T07:51:21.330Z,14.30
2022-11-08T07:53:48.207Z,14.80
2022-11-08T07:56:15.248Z,15.35
2022-11-08T07:58:42.112Z,14.07
2022-11-08T08:01:08.995Z,14.23
2022-11-08T08:03:35.944Z,14.07
2022-11-08T08:06:02.881Z,14.77
2022-11-08T08:08:31.225Z,15.55
2022-11-08T08:11:01.565Z,14.77
2022-11-08T08:13:28.879Z,15.63
2022-11-08T08:16:00.837Z,14.82
2022-11-08T08:18:29.287Z,17.85
2022-11-08T08:20:56.275Z,15.52
2022-11-08T08:23:23.135Z,14.75
2022-11-08T08:25:50.055Z,16.48
2022-11-08T08:28:16.939Z,15.00
2022-11-08T08:30:43.791Z,14.07
2022-11-08T08:33:27.866Z,13.77
2022-11-08T08:35:56.575Z,13.85
2022-11-08T08:38:23.577Z,13.88
2022-11-08T08:40:50.854Z,14.25
2022-11-08T08:43:18.192Z,13.77
2022-11-08T08:45:45.453Z,14.18
2022-11-08T08:48:12.308Z,13.23
2022-11-08T08:50:39.278Z,13.80
2022-11-08T08:53:06.637Z,14.55
2022-11-08T08:55:36.910Z,13.88
2022-11-08T08:58:03.956Z,12.55
2022-11-08T09:03:17.915Z,12.43
2022-11-08T09:05:46.935Z,13.98
2022-11-08T09:08:14.773Z,12.55
2022-11-08T09:10:42.121Z,14.15
2022-11-08T09:13:09.080Z,15.65
2022-11-08T09:15:36.047Z,14.38
2022-11-08T09:18:03.298Z,14.07
2022-11-08T09:20:30.421Z,14.50
2022-11-08T09:23:02.407Z,14.60
2022-11-08T09:25:29.325Z,14.18
2022-11-08T09:27:56.241Z,16.17
2022-11-08T09:30:23.209Z,14.35
2022-11-08T09:33:00.697Z,14.15
2022-11-08T09:35:28.382Z,14.82
2022-11-08T09:37:55.488Z,14.18
2022-11-08T09:40:26.850Z,17.10
2022-11-08T09:43:31.249Z,16.12
2022-11-08T09:45:58.234Z,16.87
2022-11-08T09:48:30.992Z,18.75
2022-11-08T09:51:00.019Z,18.83
2022-11-08T09:53:50.287Z,18.33
2022-11-08T09:56:26.056Z,16.02
2022-11-08T09:59:02.128Z,15.30
2022-11-08T10:01:36.413Z,14.55
2022-11-08T10:04:10.240Z,14.20
2022-11-08T10:06:46.945Z,13.48
2022-11-08T10:09:34.734Z,14.52
2022-11-08T10:12:21.512Z,14.20
2022-11-08T10:15:19.727Z,14.13
2022-11-08T10:18:07.768Z,13.45
2022-11-08T10:20:40.422Z,14.90
2022-11-08T10:23:13.497Z,14.77
2022-11-08T10:25:46.540Z,14.93
2022-11-08T10:28:17.117Z,16.27
2022-11-08T10:30:47.817Z,16.50
2022-11-08T10:33:29.437Z,17.35
2022-11-08T10:36:03.487Z,16.48
2022-11-08T10:38:43.010Z,15.38
2022-11-08T10:41:33.860Z,15.45
2022-11-08T10:44:07.871Z,17.35
2022-11-08T10:46:39.102Z,15.95
2022-11-08T10:49:13.627Z,16.35
2022-11-08T10:51:40.484Z,15.50
2022-11-08T10:54:07.357Z,17.23
2022-11-08T10:56:54.882Z,17.70
2022-11-08T10:59:31.889Z,15.15
2022-11-08T11:01:59.167Z,16.62
2022-11-08T11:04:31.884Z,18.08
2022-11-08T11:07:26.614Z,18.23
2022-11-08T11:09:53.574Z,18.17
2022-11-08T11:12:20.436Z,14.85
2022-11-08T11:14:56.451Z,18.20
2022-11-08T11:17:27.568Z,17.12
2022-11-08T11:19:55.696Z,17.10
2022-11-08T11:22:33.363Z,18.23
2022-11-08T11:25:13.723Z,17.55
2022-11-08T11:27:41.759Z,16.40
2022-11-08T11:30:21.421Z,17.92
2022-11-08T11:33:13.130Z,16.95
2022-11-08T11:35:56.614Z,17.55
2022-11-08T11:38:35.821Z,17.35
2022-11-08T11:41:10.937Z,15.95
2022-11-08T11:43:47.204Z,17.87
2022-11-08T11:46:24.045Z,15.63
2022-11-08T11:48:58.174Z,15.48
2022-11-08T11:51:27.759Z,15.32
2022-11-08T11:53:55.005Z,14.60
2022-11-08T11:56:45.972Z,14.55
2022-11-08T11:59:51.612Z,15.63
2022-11-08T12:02:44.267Z,16.42
2022-11-08T12:05:31.626Z,15.73
2022-11-08T12:08:06.174Z,17.17
2022-11-08T12:11:15.753Z,15.07
2022-11-08T12:14:00.971Z,15.93
2022-11-08T12:16:55.515Z,15.70
2022-11-08T12:19:26.865Z,15.48
2022-11-08T12:21:53.746Z,16.42
2022-11-08T12:24:20.528Z,15.90
2022-11-08T12:27:10.521Z,17.37
2022-11-08T12:29:43.320Z,21.80
2022-11-08T12:32:21.870Z,17.37
2022-11-08T12:35:13.614Z,17.55
2022-11-08T12:37:58.583Z,17.50
2022-11-08T12:40:43.152Z,18.33
2022-11-08T12:43:22.049Z,17.95
2022-11-08T12:46:07.923Z,19.12
2022-11-08T12:48:40.777Z,17.40
2022-11-08T12:51:22.542Z,16.77
2022-11-08T12:53:53.699Z,19.65
2022-11-08T12:56:30.744Z,18.80
2022-11-08T12:58:57.951Z,17.08
2022-11-08T13:01:24.887Z,16.98
2022-11-08T13:03:59.544Z,16.55
2022-11-08T13:06:46.480Z,18.02
2022-11-08T13:09:33.943Z,19.12
2022-11-08T13:12:15.344Z,19.08
2022-11-08T13:14:42.577Z,18.35
2022-11-08T13:17:09.349Z,17.55
2022-11-08T13:19:53.221Z,18.60
2022-11-08T13:22:29.306Z,21.58
2022-11-08T13:24:57.045Z,18.40
2022-11-08T13:27:38.050Z,20.55
2022-11-08T13:30:25.054Z,19.35
2022-11-08T13:33:14.823Z,18.25
2022-11-08T13:35:50.601Z,19.40
2022-11-08T13:38:40.886Z,19.23
2022-11-08T13:41:15.525Z,19.65
2022-11-08T13:43:42.397Z,19.67
2022-11-08T13:46:22.999Z,23.17
2022-11-08T13:48:59.023Z,22.25
2022-11-08T13:51:28.180Z,21.33
2022-11-08T13:53:58.244Z,20.83
2022-11-08T13:57:01.128Z,20.17
2022-11-08T13:59:30.713Z,20.70
2022-11-08T14:02:04.415Z,24.15
2022-11-08T14:04:35.005Z,21.17
2022-11-08T14:07:24.791Z,24.00
2022-11-08T14:09:55.068Z,22.02
2022-11-08T14:12:30.243Z,21.10
2022-11-08T14:15:07.580Z,19.75
2022-11-08T14:17:49.327Z,20.08
2022-11-08T14:20:23.091Z,20.42
2022-11-08T14:23:01.837Z,21.67
2022-11-08T14:25:31.463Z,21.62
2022-11-08T14:27:58.688Z,22.05
2022-11-08T14:30:25.768Z,25.67
2022-11-08T14:33:17.097Z,24.52
2022-11-08T14:35:54.733Z,25.30
2022-11-08T14:38:21.750Z,21.83
2022-11-08T14:40:53.624Z,26.45
2022-11-08T14:43:21.469Z,24.05
2022-11-08T14:45:48.843Z,25.70
2022-11-08T14:48:23.305Z,22.40
2022-11-08T14:50:50.956Z,26.75
2022-11-08T14:53:21.850Z,22.30
2022-11-08T14:55:56.095Z,23.02
2022-11-08T14:58:22.952Z,24.35
2022-11-08T15:00:50.057Z,29.65
2022-11-08T15:03:19.644Z,23.75
2022-11-08T15:05:57.801Z,25.50
2022-11-08T15:08:35.377Z,26.58
2022-11-08T15:11:04.766Z,27.62
2022-11-08T15:13:39.056Z,32.92
2022-11-08T15:16:06.715Z,32.72
2022-11-08T15:18:41.320Z,31.10
2022-11-08T15:21:31.641Z,30.85
2022-11-08T15:24:11.460Z,30.90
2022-11-08T15:26:38.371Z,25.00
2022-11-08T15:29:21.308Z,30.58
2022-11-08T15:31:58.480Z,30.67
2022-11-08T15:34:33.942Z,27.23
2022-11-08T15:37:00.821Z,32.05
2022-11-08T15:39:39.522Z,30.62
2022-11-08T15:42:16.075Z,28.55
2022-11-08T15:44:58.220Z,34.28
2022-11-08T15:47:43.632Z,30.27
2022-11-08T15:50:30.076Z,29.12
2022-11-08T15:52:59.167Z,34.92
2022-11-08T15:55:32.285Z,39.35
2022-11-08T15:57:59.574Z,46.60
2022-11-08T16:00:28.820Z,38.90
2022-11-08T16:02:56.134Z,44.03
2022-11-08T16:05:33.833Z,45.95
2022-11-08T16:08:00.899Z,45.10
2022-11-08T16:10:33.423Z,41.70
2022-11-08T16:13:01.141Z,42.05
2022-11-08T16:15:32.351Z,40.53
2022-11-08T16:18:00.400Z,43.85
2022-11-08T16:20:35.933Z,45.15
2022-11-08T16:23:08.123Z,47.62
2022-11-08T16:25:40.975Z,43.95
2022-11-08T16:28:22.849Z,44.40
2022-11-08T16:30:50.064Z,42.85
2022-11-08T16:33:26.348Z,51.97
2022-11-08T16:35:57.861Z,47.62
2022-11-08T16:38:35.749Z,49.50
2022-11-08T16:41:03.459Z,52.47
2022-11-08T16:43:30.949Z,49.15
2022-11-08T16:46:06.945Z,54.45
2022-11-08T16:48:36.763Z,50.43
2022-11-08T16:51:06.097Z,55.30
2022-11-08T16:53:33.297Z,59.30
2022-11-08T16:56:00.277Z,62.90
2022-11-08T16:58:28.181Z,58.47
2022-11-08T17:00:56.652Z,61.20
2022-11-08T17:03:25.252Z,61.92
2022-11-08T17:05:54.121Z,65.47
2022-11-08T17:08:21.380Z,59.70
2022-11-08T17:10:48.697Z,58.97
2022-11-08T17:13:16.643Z,61.92
2022-11-08T17:15:44.216Z,61.55
2022-11-08T17:18:13.238Z,60.70
2022-11-08T17:20:40.579Z,62.53
2022-11-08T17:23:09.178Z,59.85
2022-11-08T17:25:38.076Z,63.90
2022-11-08T17:28:05.147Z,56.42
2022-11-08T17:30:32.113Z,53.75
2022-11-08T17:32:59.011Z,78.87
2022-11-08T17:35:26.018Z,66.47
2022-11-08T17:37:53.857Z,66.65
2022-11-08T17:40:20.861Z,60.70
2022-11-08T17:42:47.725Z,64.55
2022-11-08T17:45:14.755Z,62.45
2022-11-08T17:47:41.684Z,58.13
2022-11-08T17:50:10.216Z,59.75
2022-11-08T17:52:37.446Z,62.00
2022-11-08T17:55:04.704Z,56.33
2022-11-08T17:57:31.678Z,56.47
2022-11-08T17:59:58.606Z,62.15
2022-11-08T18:02:27.626Z,61.90
2022-11-08T18:04:54.918Z,61.85
2022-11-08T18:07:21.880Z,59.97
2022-11-08T18:09:48.791Z,69.68
2022-11-08T18:12:15.660Z,88.15
2022-11-08T18:14:42.541Z,103.45
2022-11-08T18:17:09.415Z,86.12
2022-11-08T18:19:37.458Z,68.72
2022-11-08T18:22:05.468Z,65.82
2022-11-08T18:24:32.312Z,69.60
2022-11-08T18:26:59.479Z,70.15
2022-11-08T18:29:26.411Z,67.37
2022-11-08T18:31:53.213Z,112.12
2022-11-08T18:34:19.979Z,158.37
2022-11-08T18:39:19.517Z,388.65
2022-11-08T18:41:46.921Z,461.35
2022-11-08T18:44:13.704Z,367.83
2022-11-08T18:49:10.736Z,338.75
2022-11-08T18:51:37.458Z,260.65
2022-11-08T18:56:30.764Z,337.33
2022-11-08T19:01:24.770Z,129.00
2022-11-08T19:03:51.521Z,162.45
2022-11-08T19:11:14.597Z,120.17
2022-11-08T19:13:41.815Z,92.75
2022-11-08T19:16:13.682Z,113.68
2022-11-08T19:18:41.351Z,70.10
2022-11-08T19:21:16.688Z,84.35
2022-11-08T19:23:43.738Z,83.32
2022-11-08T19:26:13.184Z,90.05
2022-11-08T19:28:42.322Z,72.62
2022-11-08T19:31:09.398Z,59.60
2022-11-08T19:33:37.037Z,70.22
2022-11-08T19:36:09.304Z,75.12
2022-11-08T19:38:37.240Z,160.95
2022-11-08T19:41:08.371Z,56.10
2022-11-08T19:43:36.323Z,105.53
2022-11-08T19:46:04.696Z,125.95
2022-11-08T19:48:33.852Z,168.27
2022-11-08T19:51:02.279Z,142.35
2022-11-08T19:53:29.441Z,103.78
2022-11-08T19:56:03.907Z,143.55
2022-11-08T19:58:32.272Z,105.70
2022-11-08T20:00:59.730Z,86.50
2022-11-08T20:03:26.450Z,137.77
2022-11-08T20:08:21.230Z,102.70
2022-11-08T20:10:49.931Z,90.78
2022-11-08T20:13:16.797Z,139.80
2022-11-08T20:15:43.925Z,88.80
2022-11-08T20:18:10.686Z,70.53
2022-11-08T20:23:15.566Z,125.05
2022-11-08T20:25:42.375Z,131.80
2022-11-08T20:30:35.794Z,177.55
2022-11-08T20:33:02.541Z,262.02
2022-11-08T20:37:58.751Z,107.82
2022-11-08T20:40:25.517Z,72.05
2022-11-08T20:45:18.970Z,84.78
2022-11-08T20:50:15.625Z,70.53
2022-11-08T20:52:42.334Z,77.53
2022-11-08T20:57:35.837Z,67.03
2022-11-08T21:02:40.454Z,75.30
2022-11-08T21:08:02.082Z,65.40
2022-11-08T21:10:41.635Z,77.45
2022-11-08T21:13:07.421Z,74.20
2022-11-08T21:15:34.197Z,71.60
2022-11-08T21:20:27.487Z,67.70
2022-11-08T21:25:21.395Z,67.20
2022-11-08T21:27:48.131Z,71.85
2022-11-08T21:32:41.588Z,65.93
2022-11-08T21:35:08.739Z,61.60
2022-11-08T21:37:35.677Z,56.53
2022-11-08T21:40:02.528Z,62.78
2022-11-08T21:42:29.451Z,66.30
2022-11-08T21:44:56.299Z,63.65
2022-11-08T21:47:23.085Z,62.15
2022-11-08T21:52:16.511Z,58.28
2022-11-08T21:54:43.298Z,65.55
2022-11-08T21:59:36.832Z,69.43
2022-11-08T22:02:03.871Z,61.30
2022-11-08T22:04:30.777Z,65.32
2022-11-08T22:06:57.636Z,70.53
2022-11-08T22:09:24.476Z,67.12
2022-11-08T22:14:18.001Z,59.10
2022-11-08T22:16:44.839Z,61.17
2022-11-08T22:19:11.920Z,62.75
2022-11-08T22:21:39.366Z,67.05
2022-11-08T22:24:13.129Z,68.80
2022-11-08T22:26:40.906Z,68.82
2022-11-08T22:29:07.933Z,65.47
2022-11-08T22:31:35.106Z,52.78
2022-11-08T22:34:02.407Z,62.17
2022-11-08T22:36:29.316Z,63.40
2022-11-08T22:38:56.465Z,71.32
2022-11-08T22:41:23.849Z,68.72
2022-11-08T22:43:51.079Z,66.22
2022-11-08T22:46:18.172Z,67.20
2022-11-08T22:48:45.701Z,68.95
2022-11-08T22:51:12.588Z,65.22
2022-11-08T22:53:40.052Z,65.20
2022-11-08T22:56:11.098Z,64.82
2022-11-08T22:58:38.626Z,71.43
2022-11-08T23:01:06.690Z,67.45
2022-11-08T23:03:33.653Z,69.78
2022-11-08T23:06:00.483Z,67.40
2022-11-08T23:08:27.470Z,67.05
2022-11-08T23:11:32.668Z,64.35
2022-11-08T23:14:18.452Z,60.85
2022-11-08T23:16:46.118Z,60.83
2022-11-08T23:19:33.734Z,90.43
2022-11-08T23:22:19.384Z,62.55
2022-11-08T23:24:46.449Z,87.60
2022-11-08T23:27:33.656Z,69.82
2022-11-08T23:30:18.964Z,62.78
2022-11-08T23:32:48.472Z,86.93
2022-11-08T23:35:15.963Z,77.78
2022-11-08T23:37:42.754Z,70.62
